createdAt,value
2017-06-23T00:01:00.514Z,16.9
2017-06-23T00:02:19.201Z,16.8
2017-06-23T00:03:37.925Z,16.8
2017-06-23T00:04:56.611Z,16.8
2017-06-23T00:06:15.382Z,16.7
2017-06-23T00:07:34.105Z,16.7
2017-06-23T00:08:52.822Z,16.7
2017-06-23T00:10:11.552Z,16.7
2017-06-23T00:11:30.257Z,16.6
2017-06-23T00:12:48.981Z,16.6
2017-06-23T00:14:07.671Z,16.6
2017-06-23T00:15:26.391Z,16.6
2017-06-23T00:16:45.096Z,16.6
2017-06-23T00:18:03.846Z,16.7
2017-06-23T00:19:22.573Z,16.7
2017-06-23T00:20:41.306Z,16.7
2017-06-23T00:22:00.043Z,16.8
2017-06-23T00:23:18.729Z,16.9
2017-06-23T00:24:37.436Z,16.9
2017-06-23T00:25:56.169Z,16.9
2017-06-23T00:27:14.900Z,16.9
2017-06-23T00:28:33.580Z,16.9
2017-06-23T00:29:52.321Z,16.8
2017-06-23T00:31:11.025Z,16.8
2017-06-23T00:32:29.766Z,16.8
2017-06-23T00:33:48.453Z,16.8
2017-06-23T00:35:07.144Z,16.8
2017-06-23T00:36:25.825Z,16.8
2017-06-23T00:37:44.604Z,16.8
2017-06-23T00:39:03.271Z,16.7
2017-06-23T00:40:21.945Z,16.7
2017-06-23T00:41:40.640Z,16.7
2017-06-23T00:42:59.338Z,16.6
2017-06-23T00:44:18.023Z,16.5
2017-06-23T00:45:36.724Z,16.5
2017-06-23T00:46:55.401Z,16.5
2017-06-23T00:48:14.132Z,16.5
2017-06-23T00:49:32.844Z,16.5
2017-06-23T00:50:51.582Z,16.6
2017-06-23T00:52:10.264Z,16.6
2017-06-23T00:53:29.011Z,16.6
2017-06-23T00:54:47.701Z,16.7
2017-06-23T00:56:06.393Z,16.7
2017-06-23T00:57:25.079Z,16.7
2017-06-23T00:58:43.827Z,16.7
2017-06-23T01:00:02.510Z,16.8
2017-06-23T01:01:21.226Z,16.8
2017-06-23T01:02:39.978Z,16.8
2017-06-23T01:03:58.700Z,16.6
2017-06-23T01:05:17.464Z,16.5
2017-06-23T01:06:36.151Z,16.4
2017-06-23T01:07:54.889Z,16.3
2017-06-23T01:09:13.626Z,16.2
2017-06-23T01:10:32.365Z,16.2
2017-06-23T01:11:51.093Z,16.2
2017-06-23T01:13:09.842Z,16.2
2017-06-23T01:14:28.579Z,16.2
2017-06-23T01:15:47.319Z,16.2
2017-06-23T01:17:06.009Z,16.3
2017-06-23T01:18:24.694Z,16.4
2017-06-23T01:19:43.397Z,16.4
2017-06-23T01:21:02.078Z,16.4
2017-06-23T01:22:20.768Z,16.5
2017-06-23T01:23:39.489Z,16.5
2017-06-23T01:24:58.212Z,16.5
2017-06-23T01:26:16.940Z,16.5
2017-06-23T01:27:35.635Z,16.5
2017-06-23T01:28:54.376Z,16.5
2017-06-23T01:30:13.083Z,16.5
2017-06-23T01:31:31.776Z,16.5
2017-06-23T01:32:50.465Z,16.5
2017-06-23T01:34:09.165Z,16.6
2017-06-23T01:35:27.856Z,16.6
2017-06-23T01:36:46.593Z,16.6
2017-06-23T01:38:05.339Z,16.7
2017-06-23T01:39:24.050Z,16.6
2017-06-23T01:40:42.805Z,16.6
2017-06-23T01:42:01.493Z,16.6
2017-06-23T01:43:20.223Z,16.6
2017-06-23T01:44:38.930Z,16.5
2017-06-23T01:45:57.621Z,16.4
2017-06-23T01:47:16.354Z,16.2
2017-06-23T01:48:35.063Z,16.1
2017-06-23T01:49:53.751Z,16
2017-06-23T01:51:12.469Z,16
2017-06-23T01:52:31.171Z,16
2017-06-23T01:53:49.854Z,15.9
2017-06-23T01:55:08.566Z,15.9
2017-06-23T01:56:27.309Z,15.8
2017-06-23T01:57:45.995Z,15.7
2017-06-23T01:59:04.680Z,15.7
2017-06-23T02:00:23.375Z,15.6
2017-06-23T02:01:42.078Z,15.6
2017-06-23T02:03:00.803Z,15.6
2017-06-23T02:04:19.489Z,15.5
2017-06-23T02:05:38.176Z,15.5
2017-06-23T02:06:56.883Z,15.6
2017-06-23T02:08:15.572Z,15.6
2017-06-23T02:09:34.269Z,15.6
2017-06-23T02:10:52.955Z,15.6
2017-06-23T02:12:11.721Z,15.6
2017-06-23T02:13:30.400Z,15.6
2017-06-23T02:14:49.155Z,15.5
2017-06-23T02:16:07.882Z,15.5
2017-06-23T02:17:26.583Z,15.5
2017-06-23T02:18:45.330Z,15.5
2017-06-23T02:20:04.043Z,15.5
2017-06-23T02:21:22.765Z,15.5
2017-06-23T02:22:41.474Z,15.4
2017-06-23T02:24:00.165Z,15.4
2017-06-23T02:25:18.865Z,15.4
2017-06-23T02:26:37.571Z,15.4
2017-06-23T02:27:56.321Z,15.4
2017-06-23T02:29:15.007Z,15.3
2017-06-23T02:30:33.699Z,15.3
2017-06-23T02:31:52.411Z,15.3
2017-06-23T02:33:11.135Z,15.3
2017-06-23T02:34:29.813Z,15.3
2017-06-23T02:35:48.493Z,15.3
2017-06-23T02:37:07.172Z,15.3
2017-06-23T02:38:25.861Z,15.3
2017-06-23T02:39:44.587Z,15.2
2017-06-23T02:41:03.263Z,15.2
2017-06-23T02:42:21.991Z,15.2
2017-06-23T02:43:40.710Z,15.2
2017-06-23T02:44:59.449Z,15.2
2017-06-23T02:46:18.134Z,15.2
2017-06-23T02:47:36.822Z,15.2
2017-06-23T02:48:55.534Z,15.2
2017-06-23T02:50:14.218Z,15.3
2017-06-23T02:51:32.959Z,15.3
2017-06-23T02:52:51.646Z,15.3
2017-06-23T02:54:10.333Z,15.4
2017-06-23T02:55:29.081Z,15.5
2017-06-23T02:56:47.758Z,15.6
2017-06-23T02:58:06.443Z,15.6
2017-06-23T02:59:25.169Z,15.7
2017-06-23T03:00:43.896Z,15.7
2017-06-23T03:02:02.586Z,15.7
2017-06-23T03:03:21.315Z,15.8
2017-06-23T03:04:40.017Z,15.8
2017-06-23T03:05:58.696Z,15.8
2017-06-23T03:07:17.424Z,15.8
2017-06-23T03:08:36.111Z,15.9
2017-06-23T03:09:54.807Z,15.9
2017-06-23T03:11:13.490Z,15.9
2017-06-23T03:12:32.177Z,15.9
2017-06-23T03:13:50.861Z,15.9
2017-06-23T03:15:09.603Z,16
2017-06-23T03:16:28.292Z,16
2017-06-23T03:17:47.032Z,16
2017-06-23T03:19:05.751Z,16
2017-06-23T03:20:24.454Z,16
2017-06-23T03:21:43.170Z,16
2017-06-23T03:23:01.862Z,16
2017-06-23T03:24:20.581Z,16
2017-06-23T03:25:39.335Z,15.9
2017-06-23T03:26:58.069Z,15.9
2017-06-23T03:28:16.760Z,15.8
2017-06-23T03:29:35.460Z,15.8
2017-06-23T03:30:54.193Z,15.7
2017-06-23T03:32:12.877Z,15.7
2017-06-23T03:33:31.602Z,15.8
2017-06-23T03:34:50.336Z,15.8
2017-06-23T03:36:09.112Z,15.9
2017-06-23T03:37:27.845Z,15.9
2017-06-23T03:38:46.577Z,15.9
2017-06-23T03:40:05.314Z,16
2017-06-23T03:41:24.029Z,16
2017-06-23T03:42:42.748Z,16
2017-06-23T03:44:01.432Z,16.1
2017-06-23T03:45:20.143Z,16.1
2017-06-23T03:46:38.850Z,16.1
2017-06-23T03:47:57.574Z,16.1
2017-06-23T03:49:16.280Z,16.1
2017-06-23T03:50:34.980Z,16.1
2017-06-23T03:51:53.666Z,16.1
2017-06-23T03:53:12.410Z,16.1
2017-06-23T03:54:31.123Z,16.1
2017-06-23T03:55:49.822Z,16.1
2017-06-23T03:57:08.507Z,16.1
2017-06-23T03:58:27.194Z,16.1
2017-06-23T03:59:45.913Z,16.1
2017-06-23T04:01:04.602Z,16.1
2017-06-23T04:02:23.388Z,16.1
2017-06-23T04:03:42.077Z,16.1
2017-06-23T04:05:00.804Z,16.1
2017-06-23T04:06:19.507Z,16.2
2017-06-23T04:07:38.186Z,16.2
2017-06-23T04:08:56.911Z,16.2
2017-06-23T04:10:15.592Z,16.2
2017-06-23T04:11:34.279Z,16.1
2017-06-23T04:12:52.978Z,16.1
2017-06-23T04:14:11.653Z,16
2017-06-23T04:15:30.334Z,16
2017-06-23T04:16:49.054Z,16
2017-06-23T04:18:07.830Z,16
2017-06-23T04:19:26.570Z,15.9
2017-06-23T04:20:45.251Z,15.9
2017-06-23T04:22:03.991Z,15.9
2017-06-23T04:23:22.690Z,15.8
2017-06-23T04:24:41.372Z,15.8
2017-06-23T04:26:00.062Z,15.8
2017-06-23T04:27:18.746Z,15.8
2017-06-23T04:28:37.462Z,15.9
2017-06-23T04:29:56.148Z,16
2017-06-23T04:31:14.838Z,16
2017-06-23T04:32:33.573Z,16.1
2017-06-23T04:33:52.289Z,16.2
2017-06-23T04:35:11.003Z,16.3
2017-06-23T04:36:29.690Z,16.3
2017-06-23T04:37:48.378Z,16.3
2017-06-23T04:39:07.093Z,16.3
2017-06-23T04:40:25.786Z,16.3
2017-06-23T04:41:44.519Z,16.3
2017-06-23T04:43:03.197Z,16.4
2017-06-23T04:44:21.888Z,16.4
2017-06-23T04:45:40.570Z,16.4
2017-06-23T04:46:59.260Z,16.5
2017-06-23T04:48:17.994Z,16.6
2017-06-23T04:49:36.747Z,16.6
2017-06-23T04:50:55.449Z,16.7
2017-06-23T04:52:14.197Z,16.7
2017-06-23T04:53:32.885Z,16.9
2017-06-23T04:54:51.594Z,17
2017-06-23T04:56:10.334Z,17.1
2017-06-23T04:57:29.053Z,17.1
2017-06-23T04:58:47.793Z,17.2
2017-06-23T05:00:06.506Z,17.3
2017-06-23T05:01:25.197Z,17.3
2017-06-23T05:02:43.903Z,17.4
2017-06-23T05:04:02.590Z,17.4
2017-06-23T05:05:21.355Z,17.5
2017-06-23T05:06:40.045Z,17.6
2017-06-23T05:07:58.739Z,17.7
2017-06-23T05:09:17.448Z,17.9
2017-06-23T05:10:36.142Z,18
2017-06-23T05:11:54.871Z,18.2
2017-06-23T05:13:13.578Z,18.3
2017-06-23T05:14:32.318Z,18.4
2017-06-23T05:15:51.016Z,18.6
2017-06-23T05:17:09.761Z,18.8
2017-06-23T05:18:28.470Z,19.1
2017-06-23T05:19:47.154Z,19.3
2017-06-23T05:21:05.880Z,19.5
2017-06-23T05:22:24.593Z,19.8
2017-06-23T05:23:43.339Z,20.1
2017-06-23T05:25:02.026Z,20.1
2017-06-23T05:26:20.743Z,20.3
2017-06-23T05:27:39.434Z,20.2
2017-06-23T05:28:58.125Z,20.3
2017-06-23T05:30:16.871Z,20.2
2017-06-23T05:31:35.590Z,20.1
2017-06-23T05:32:54.281Z,20.1
2017-06-23T05:34:12.966Z,20
2017-06-23T05:35:31.670Z,19.7
2017-06-23T05:36:50.434Z,19.5
2017-06-23T05:38:09.152Z,19.4
2017-06-23T05:39:27.839Z,19.5
2017-06-23T05:40:46.577Z,19.5
2017-06-23T05:42:05.325Z,19.6
2017-06-23T05:43:24.054Z,19.7
2017-06-23T05:44:42.736Z,19.7
2017-06-23T05:46:01.469Z,19.7
2017-06-23T05:47:20.239Z,19.8
2017-06-23T05:48:38.958Z,19.9
2017-06-23T05:49:57.699Z,19.9
2017-06-23T05:51:16.383Z,20
2017-06-23T05:52:35.165Z,20
2017-06-23T05:53:53.872Z,19.8
2017-06-23T05:55:12.578Z,19.6
2017-06-23T05:56:31.317Z,19.6
2017-06-23T05:57:50.029Z,19.6
2017-06-23T05:59:08.728Z,19.8
2017-06-23T06:00:27.451Z,19.9
2017-06-23T06:01:46.148Z,20
2017-06-23T06:03:04.873Z,20.1
2017-06-23T06:04:23.609Z,20.1
2017-06-23T06:05:42.355Z,20
2017-06-23T06:07:01.044Z,20.1
2017-06-23T06:08:19.821Z,20.2
2017-06-23T06:09:38.506Z,20.2
2017-06-23T06:10:57.198Z,20.2
2017-06-23T06:12:15.901Z,20.2
2017-06-23T06:13:34.594Z,20.3
2017-06-23T06:14:53.322Z,20.3
2017-06-23T06:16:12.013Z,20.1
2017-06-23T06:17:30.742Z,20
2017-06-23T06:18:49.456Z,20.1
2017-06-23T06:20:08.204Z,20.2
2017-06-23T06:21:26.898Z,20.3
2017-06-23T06:22:45.591Z,20.4
2017-06-23T06:24:04.377Z,20.5
2017-06-23T06:25:23.115Z,20.4
2017-06-23T06:26:41.831Z,20.1
2017-06-23T06:28:00.584Z,19.9
2017-06-23T06:29:19.339Z,19.8
2017-06-23T06:30:38.027Z,19.6
2017-06-23T06:31:56.722Z,19.5
2017-06-23T06:33:15.412Z,19.5
2017-06-23T06:34:34.164Z,19.8
2017-06-23T06:35:52.852Z,19.9
2017-06-23T06:37:11.583Z,19.9
2017-06-23T06:38:30.283Z,20
2017-06-23T06:39:49.043Z,20
2017-06-23T06:41:07.780Z,20
2017-06-23T06:42:26.512Z,19.9
2017-06-23T06:43:45.236Z,19.7
2017-06-23T06:45:03.975Z,19.7
2017-06-23T06:46:22.671Z,19.7
2017-06-23T06:47:41.357Z,19.7
2017-06-23T06:49:00.073Z,19.6
2017-06-23T06:50:18.775Z,19.4
2017-06-23T06:51:37.463Z,19.2
2017-06-23T06:52:56.175Z,19.3
2017-06-23T06:54:14.895Z,19.4
2017-06-23T06:55:33.625Z,19.5
2017-06-23T06:56:52.370Z,19.5
2017-06-23T06:58:11.057Z,19.5
2017-06-23T06:59:29.742Z,19.6
2017-06-23T07:00:48.444Z,19.8
2017-06-23T07:02:07.141Z,19.9
2017-06-23T07:03:25.829Z,20
2017-06-23T07:04:44.512Z,20
2017-06-23T07:06:03.228Z,20.1
2017-06-23T07:07:21.975Z,19.9
2017-06-23T07:08:40.664Z,19.9
2017-06-23T07:09:59.390Z,20
2017-06-23T07:11:18.116Z,20.1
2017-06-23T07:12:36.812Z,20.1
2017-06-23T07:13:55.530Z,20.1
2017-06-23T07:15:14.223Z,20.3
2017-06-23T07:16:32.950Z,20.6
2017-06-23T07:17:51.644Z,20.8
2017-06-23T07:19:10.342Z,21
2017-06-23T07:20:29.056Z,21
2017-06-23T07:21:47.797Z,21
2017-06-23T07:23:06.485Z,20.6
2017-06-23T07:24:25.171Z,20.3
2017-06-23T07:25:43.873Z,20.2
2017-06-23T07:27:02.617Z,20.2
2017-06-23T07:28:21.339Z,20.2
2017-06-23T07:29:40.033Z,20.2
2017-06-23T07:30:58.728Z,20.1
2017-06-23T07:32:17.477Z,20
2017-06-23T07:33:36.218Z,20
2017-06-23T07:34:54.963Z,19.9
2017-06-23T07:36:13.659Z,19.8
2017-06-23T07:37:32.443Z,20.1
2017-06-23T07:38:51.138Z,20.5
2017-06-23T07:40:09.838Z,20.8
2017-06-23T07:41:28.581Z,20.7
2017-06-23T07:42:47.353Z,20.4
2017-06-23T07:44:06.055Z,20.3
2017-06-23T07:45:24.766Z,20.4
2017-06-23T07:46:43.455Z,20.6
2017-06-23T07:48:02.170Z,20.8
2017-06-23T07:49:20.854Z,20.9
2017-06-23T07:50:39.598Z,20.6
2017-06-23T07:51:58.276Z,20.3
2017-06-23T07:53:16.976Z,20.2
2017-06-23T07:54:35.669Z,20.3
2017-06-23T07:55:54.355Z,20.3
2017-06-23T07:57:13.097Z,20.4
2017-06-23T07:58:31.864Z,20.5
2017-06-23T07:59:50.577Z,20.4
2017-06-23T08:01:09.324Z,20.4
2017-06-23T08:02:28.014Z,20.3
2017-06-23T08:03:46.714Z,20.5
2017-06-23T08:05:05.406Z,20.5
2017-06-23T08:06:24.134Z,20.5
2017-06-23T08:07:42.868Z,20.5
2017-06-23T08:09:01.638Z,20.8
2017-06-23T08:10:20.358Z,21.1
2017-06-23T08:11:39.077Z,21.2
2017-06-23T08:12:57.767Z,21.1
2017-06-23T08:14:16.489Z,21.1
2017-06-23T08:15:35.173Z,21.2
2017-06-23T08:16:53.931Z,21.3
2017-06-23T08:18:12.671Z,21.4
2017-06-23T08:19:31.409Z,21.7
2017-06-23T08:20:50.130Z,22
2017-06-23T08:22:08.845Z,22
2017-06-23T08:23:27.589Z,21.9
2017-06-23T08:24:46.288Z,22
2017-06-23T08:26:04.974Z,22
2017-06-23T08:27:23.679Z,21.7
2017-06-23T08:28:42.416Z,21.5
2017-06-23T08:30:01.196Z,21.4
2017-06-23T08:31:19.947Z,21.4
2017-06-23T08:32:38.641Z,21.5
2017-06-23T08:33:57.393Z,21.8
2017-06-23T08:35:16.136Z,22.2
2017-06-23T08:36:34.831Z,22.8
2017-06-23T08:37:53.578Z,23.1
2017-06-23T08:39:12.274Z,23.3
2017-06-23T08:40:31.031Z,23
2017-06-23T08:41:49.719Z,22.9
2017-06-23T08:43:08.409Z,22.5
2017-06-23T08:44:27.122Z,22.3
2017-06-23T08:45:45.876Z,22.4
2017-06-23T08:47:04.592Z,22.5
2017-06-23T08:48:23.282Z,22.2
2017-06-23T08:49:42.023Z,22.1
2017-06-23T08:51:00.746Z,22.5
2017-06-23T08:52:19.445Z,22.7
2017-06-23T08:53:38.188Z,23.2
2017-06-23T08:54:56.878Z,23.4
2017-06-23T08:56:15.620Z,23.3
2017-06-23T08:57:34.317Z,22.9
2017-06-23T08:58:53.012Z,22.4
2017-06-23T09:00:11.713Z,22.2
2017-06-23T09:01:30.482Z,21.8
2017-06-23T09:02:49.178Z,21.7
2017-06-23T09:04:07.880Z,21.9
2017-06-23T09:05:26.581Z,22.1
2017-06-23T09:06:45.332Z,22
2017-06-23T09:08:04.070Z,21.6
2017-06-23T09:09:22.757Z,21.3
2017-06-23T09:10:41.435Z,21
2017-06-23T09:12:00.153Z,21.1
2017-06-23T09:13:18.926Z,21.6
2017-06-23T09:14:37.622Z,21.9
2017-06-23T09:15:56.364Z,22
2017-06-23T09:17:15.092Z,22.2
2017-06-23T09:18:33.793Z,22.7
2017-06-23T09:19:52.509Z,23.2
2017-06-23T09:21:11.243Z,23.6
2017-06-23T09:22:29.975Z,24
2017-06-23T09:23:48.682Z,24.1
2017-06-23T09:25:07.421Z,24.1
2017-06-23T09:26:26.108Z,23.9
2017-06-23T09:27:44.815Z,23.9
2017-06-23T09:29:03.569Z,24.3
2017-06-23T09:30:22.277Z,24.7
2017-06-23T09:31:40.966Z,24.7
2017-06-23T09:32:59.693Z,24.6
2017-06-23T09:34:18.437Z,24.7
2017-06-23T09:35:37.139Z,24.7
2017-06-23T09:36:55.833Z,25
2017-06-23T09:38:14.609Z,25
2017-06-23T09:39:33.337Z,24.8
2017-06-23T09:40:52.024Z,24.6
2017-06-23T09:42:10.719Z,24.5
2017-06-23T09:43:29.521Z,24.2
2017-06-23T09:44:48.226Z,24
2017-06-23T09:46:06.940Z,23.8
2017-06-23T09:47:25.632Z,23.8
2017-06-23T09:48:44.403Z,24.1
2017-06-23T09:50:03.098Z,24.5
2017-06-23T09:51:21.824Z,24.5
2017-06-23T09:52:40.523Z,24.3
2017-06-23T09:53:59.223Z,23.9
2017-06-23T09:55:17.975Z,23.8
2017-06-23T09:56:36.660Z,24
2017-06-23T09:57:55.385Z,24.4
2017-06-23T09:59:14.106Z,24.6
2017-06-23T10:00:32.787Z,24.7
2017-06-23T10:01:51.471Z,24.3
2017-06-23T10:03:10.173Z,24.6
2017-06-23T10:04:28.957Z,24.9
2017-06-23T10:05:47.648Z,25.2
2017-06-23T10:07:06.355Z,25.4
2017-06-23T10:08:25.088Z,25.8
2017-06-23T10:09:43.806Z,26
2017-06-23T10:11:02.496Z,26.4
2017-06-23T10:12:21.182Z,26.9
2017-06-23T10:13:39.873Z,27.4
2017-06-23T10:14:58.608Z,27.1
2017-06-23T10:16:17.359Z,26.6
2017-06-23T10:17:36.071Z,26
2017-06-23T10:18:54.766Z,26
2017-06-23T10:20:13.496Z,26.1
2017-06-23T10:21:32.242Z,26.4
2017-06-23T10:22:50.931Z,26.5
2017-06-23T10:24:09.631Z,26.8
2017-06-23T10:25:28.380Z,27
2017-06-23T10:26:47.094Z,27.1
2017-06-23T10:28:05.796Z,26.7
2017-06-23T10:29:24.492Z,27
2017-06-23T10:30:43.184Z,26.8
2017-06-23T10:32:01.870Z,26.5
2017-06-23T10:33:20.621Z,26.2
2017-06-23T10:34:39.313Z,26
2017-06-23T10:35:58.065Z,25.8
2017-06-23T10:37:16.770Z,25.7
2017-06-23T10:38:35.514Z,25.9
2017-06-23T10:39:54.217Z,26
2017-06-23T10:41:12.977Z,26
2017-06-23T10:42:31.721Z,26.2
2017-06-23T10:43:50.436Z,26
2017-06-23T10:45:09.149Z,25.8
2017-06-23T10:46:27.845Z,25.9
2017-06-23T10:47:46.588Z,26
2017-06-23T10:49:05.324Z,25.8
2017-06-23T10:50:24.074Z,26
2017-06-23T10:51:42.825Z,25.9
2017-06-23T10:53:01.527Z,25.4
2017-06-23T10:54:20.267Z,24.7
2017-06-23T10:55:38.994Z,24.1
2017-06-23T10:56:57.742Z,24
2017-06-23T10:58:16.443Z,24
2017-06-23T10:59:35.134Z,24.2
2017-06-23T11:00:53.840Z,24.6
2017-06-23T11:02:12.601Z,25.5
2017-06-23T11:03:31.289Z,26.4
2017-06-23T11:04:49.980Z,27
2017-06-23T11:06:08.713Z,26.6
2017-06-23T11:07:27.467Z,26.2
2017-06-23T11:08:46.154Z,26.3
2017-06-23T11:10:04.837Z,26.4
2017-06-23T11:11:23.582Z,26.3
2017-06-23T11:12:42.367Z,25.8
2017-06-23T11:14:01.122Z,25.6
2017-06-23T11:15:19.808Z,25
2017-06-23T11:16:38.542Z,24.7
2017-06-23T11:17:57.250Z,25
2017-06-23T11:19:15.933Z,25.1
2017-06-23T11:20:34.647Z,25
2017-06-23T11:21:53.343Z,25.1
2017-06-23T11:23:12.076Z,25.4
2017-06-23T11:24:30.763Z,25.8
2017-06-23T11:25:49.522Z,25.8
2017-06-23T11:27:08.223Z,25.8
2017-06-23T11:28:26.934Z,26.1
2017-06-23T11:29:45.621Z,26.3
2017-06-23T11:31:04.361Z,26.1
2017-06-23T11:32:23.051Z,25.6
2017-06-23T11:33:41.792Z,25.8
2017-06-23T11:35:00.483Z,25.8
2017-06-23T11:36:19.230Z,25.7
2017-06-23T11:37:37.965Z,25.8
2017-06-23T11:38:56.701Z,26
2017-06-23T11:40:15.425Z,26.3
2017-06-23T11:41:34.136Z,26.7
2017-06-23T11:42:52.851Z,27.2
2017-06-23T11:44:11.591Z,27.3
2017-06-23T11:45:30.332Z,27.6
2017-06-23T11:46:49.112Z,27.8
2017-06-23T11:48:07.838Z,28.3
2017-06-23T11:49:26.614Z,28.5
2017-06-23T11:50:45.346Z,28.4
2017-06-23T11:52:04.071Z,28
2017-06-23T11:53:22.759Z,28.1
2017-06-23T11:54:41.483Z,28.2
2017-06-23T11:56:00.212Z,27.8
2017-06-23T11:57:18.945Z,27.7
2017-06-23T11:58:37.632Z,27.6
2017-06-23T11:59:56.365Z,28.2
2017-06-23T12:01:15.078Z,30.2
2017-06-23T12:02:33.772Z,31.2
2017-06-23T12:03:52.468Z,33.2
2017-06-23T12:05:11.158Z,34.4
2017-06-23T12:06:29.847Z,34.7
2017-06-23T12:07:48.575Z,34.8
2017-06-23T12:09:07.319Z,34.9
2017-06-23T12:10:26.049Z,35
2017-06-23T12:11:44.738Z,35
2017-06-23T12:13:03.424Z,35.1
2017-06-23T12:14:22.120Z,35.2
2017-06-23T12:15:40.818Z,35
2017-06-23T12:16:59.531Z,34.9
2017-06-23T12:18:18.236Z,34.7
2017-06-23T12:19:36.951Z,34.6
2017-06-23T12:20:55.674Z,34.5
2017-06-23T12:22:14.422Z,34.4
2017-06-23T12:23:33.107Z,34.4
2017-06-23T12:24:51.796Z,34.4
2017-06-23T12:26:10.522Z,34.6
2017-06-23T12:27:29.274Z,34.7
2017-06-23T12:28:47.957Z,34.8
2017-06-23T12:30:06.670Z,34.8
2017-06-23T12:31:25.410Z,34.8
2017-06-23T12:32:44.171Z,35
2017-06-23T12:34:02.863Z,35.3
2017-06-23T12:35:21.586Z,35.4
2017-06-23T12:36:40.362Z,35.2
2017-06-23T12:37:59.075Z,35
2017-06-23T12:39:17.775Z,34.7
2017-06-23T12:40:36.464Z,34.8
2017-06-23T12:41:55.190Z,34.6
2017-06-23T12:43:13.906Z,34.3
2017-06-23T12:44:32.638Z,34.4
2017-06-23T12:45:51.330Z,34.6
2017-06-23T12:47:10.055Z,34.5
2017-06-23T12:48:28.750Z,34.4
2017-06-23T12:49:47.471Z,34.4
2017-06-23T12:51:06.208Z,34.6
2017-06-23T12:52:24.935Z,34.8
2017-06-23T12:53:43.629Z,34.5
2017-06-23T12:55:02.376Z,34.4
2017-06-23T12:56:21.075Z,34.4
2017-06-23T12:57:39.816Z,34.4
2017-06-23T12:58:58.501Z,34.3
2017-06-23T13:00:17.204Z,33.9
2017-06-23T13:01:35.914Z,33.5
2017-06-23T13:02:54.619Z,32.4
2017-06-23T13:04:13.326Z,32.2
2017-06-23T13:05:32.017Z,32.4
2017-06-23T13:06:50.704Z,32.5
2017-06-23T13:08:09.398Z,31.6
2017-06-23T13:09:28.087Z,31.2
2017-06-23T13:10:46.824Z,31.4
2017-06-23T13:12:05.547Z,31.6
2017-06-23T13:13:24.275Z,31.9
2017-06-23T13:14:43.024Z,33.4
2017-06-23T13:16:01.714Z,34.3
2017-06-23T13:17:20.396Z,34.4
2017-06-23T13:18:39.148Z,34.4
2017-06-23T13:19:57.846Z,34.2
2017-06-23T13:21:16.592Z,33.6
2017-06-23T13:22:35.337Z,33.7
2017-06-23T13:23:54.081Z,33.9
2017-06-23T13:25:12.765Z,34.3
2017-06-23T13:26:31.452Z,34.3
2017-06-23T13:27:50.187Z,34.4
2017-06-23T13:29:08.959Z,34.6
2017-06-23T13:30:27.697Z,34.8
2017-06-23T13:31:46.391Z,34.8
2017-06-23T13:33:05.152Z,34.9
2017-06-23T13:34:23.951Z,34.9
2017-06-23T13:35:42.637Z,34.7
2017-06-23T13:37:01.371Z,34.7
2017-06-23T13:38:20.058Z,34.7
2017-06-23T13:39:38.802Z,34.6
2017-06-23T13:40:57.516Z,34.5
2017-06-23T13:42:16.262Z,34.5
2017-06-23T13:43:34.973Z,34.6
2017-06-23T13:44:53.700Z,34.6
2017-06-23T13:46:12.428Z,34.6
2017-06-23T13:47:31.132Z,34.4
2017-06-23T13:48:49.819Z,34.3
2017-06-23T13:50:08.581Z,34.3
2017-06-23T13:51:27.327Z,34.3
2017-06-23T13:52:46.013Z,34.1
2017-06-23T13:54:04.745Z,33.3
2017-06-23T13:55:23.436Z,32.2
2017-06-23T13:56:42.135Z,31.3
2017-06-23T13:58:00.824Z,31.1
2017-06-23T13:59:19.533Z,31
2017-06-23T14:00:38.261Z,31.2
2017-06-23T14:01:56.950Z,30.9
2017-06-23T14:03:15.638Z,31
2017-06-23T14:04:34.384Z,31.3
2017-06-23T14:05:53.082Z,31.8
2017-06-23T14:07:11.769Z,31.9
2017-06-23T14:08:30.459Z,31.2
2017-06-23T14:09:49.177Z,31
2017-06-23T14:11:07.905Z,31.2
2017-06-23T14:12:26.598Z,31.3
2017-06-23T14:13:45.351Z,31.3
2017-06-23T14:15:04.132Z,31.4
2017-06-23T14:16:22.866Z,31.4
2017-06-23T14:17:41.586Z,31.3
2017-06-23T14:19:00.309Z,30.6
2017-06-23T14:20:19.066Z,30
2017-06-23T14:21:37.795Z,29.7
2017-06-23T14:22:56.475Z,29.8
2017-06-23T14:24:15.160Z,29.9
2017-06-23T14:25:33.931Z,30
2017-06-23T14:26:52.629Z,30.2
2017-06-23T14:28:11.320Z,30.1
2017-06-23T14:29:30.002Z,30.2
2017-06-23T14:30:48.684Z,30.5
2017-06-23T14:32:07.468Z,30.5
2017-06-23T14:33:26.152Z,30.9
2017-06-23T14:34:44.845Z,31.7
2017-06-23T14:36:03.574Z,32.2
2017-06-23T14:37:22.332Z,32.2
2017-06-23T14:38:41.027Z,33
2017-06-23T14:39:59.714Z,32.9
2017-06-23T14:41:18.398Z,31.8
2017-06-23T14:42:37.150Z,31
2017-06-23T14:43:55.843Z,30.7
2017-06-23T14:45:14.587Z,30.7
2017-06-23T14:46:33.322Z,30.9
2017-06-23T14:47:52.073Z,30.7
2017-06-23T14:49:10.792Z,30.3
2017-06-23T14:50:29.505Z,30.5
2017-06-23T14:51:48.217Z,31
2017-06-23T14:53:06.918Z,31
2017-06-23T14:54:25.613Z,31.1
2017-06-23T14:55:44.361Z,30.8
2017-06-23T14:57:03.089Z,30.8
2017-06-23T14:58:21.849Z,30.4
2017-06-23T14:59:40.595Z,30.2
2017-06-23T15:00:59.288Z,29.9
2017-06-23T15:02:18.022Z,29.9
2017-06-23T15:03:36.761Z,29.4
2017-06-23T15:04:55.479Z,29.3
2017-06-23T15:06:14.179Z,29.3
2017-06-23T15:07:32.867Z,29.3
2017-06-23T15:08:51.601Z,29.2
2017-06-23T15:10:10.340Z,29.2
2017-06-23T15:11:29.058Z,29.2
2017-06-23T15:12:47.747Z,29.2
2017-06-23T15:14:06.451Z,29.3
2017-06-23T15:15:25.192Z,29.2
2017-06-23T15:16:43.905Z,28.9
2017-06-23T15:18:02.649Z,29.2
2017-06-23T15:19:21.418Z,30
2017-06-23T15:20:40.156Z,30.7
2017-06-23T15:21:58.920Z,30.9
2017-06-23T15:23:17.641Z,30.9
2017-06-23T15:24:36.364Z,31.1
2017-06-23T15:25:55.059Z,31.2
2017-06-23T15:27:13.761Z,31.3
2017-06-23T15:28:32.456Z,31
2017-06-23T15:29:51.202Z,30.9
2017-06-23T15:31:09.947Z,30.6
2017-06-23T15:32:28.642Z,30.4
2017-06-23T15:33:47.403Z,30.1
2017-06-23T15:35:06.157Z,29.7
2017-06-23T15:36:24.856Z,29.2
2017-06-23T15:37:43.576Z,28.7
2017-06-23T15:39:02.327Z,28.3
2017-06-23T15:40:21.069Z,28.5
2017-06-23T15:41:39.771Z,28.8
2017-06-23T15:42:58.464Z,29.1
2017-06-23T15:44:17.209Z,29.1
2017-06-23T15:45:35.900Z,29.2
2017-06-23T15:46:54.589Z,29.4
2017-06-23T15:48:13.313Z,29.4
2017-06-23T15:49:31.995Z,31.6
2017-06-23T15:50:50.765Z,32.2
2017-06-23T15:52:09.496Z,31.5
2017-06-23T15:53:28.186Z,31.1
2017-06-23T15:54:46.880Z,30.8
2017-06-23T15:56:05.593Z,31.5
2017-06-23T15:57:24.292Z,33.9
2017-06-23T15:58:42.988Z,34.2
2017-06-23T16:00:01.680Z,34.6
2017-06-23T16:01:20.392Z,35.1
2017-06-23T16:02:39.108Z,34.9
2017-06-23T16:03:57.804Z,34.7
2017-06-23T16:05:16.559Z,34.8
2017-06-23T16:06:35.334Z,35
2017-06-23T16:07:54.084Z,35
2017-06-23T16:09:12.836Z,35.4
2017-06-23T16:10:31.581Z,35.5
2017-06-23T16:11:50.270Z,35.3
2017-06-23T16:13:09.029Z,35.2
2017-06-23T16:14:27.747Z,35.2
2017-06-23T16:15:46.453Z,35.4
2017-06-23T16:17:05.175Z,35.2
2017-06-23T16:18:23.888Z,34.7
2017-06-23T16:19:42.614Z,34.6
2017-06-23T16:21:01.320Z,34.7
2017-06-23T16:22:20.080Z,34.5
2017-06-23T16:23:38.819Z,34.4
2017-06-23T16:24:57.514Z,34.4
2017-06-23T16:26:16.214Z,34.5
2017-06-23T16:27:34.923Z,34.6
2017-06-23T16:28:53.619Z,34.6
2017-06-23T16:30:12.369Z,34.4
2017-06-23T16:31:31.065Z,33.3
2017-06-23T16:32:49.766Z,31.3
2017-06-23T16:34:08.512Z,30
2017-06-23T16:35:27.226Z,29.5
2017-06-23T16:36:45.926Z,28.9
2017-06-23T16:38:04.652Z,28.4
2017-06-23T16:39:23.352Z,27.8
2017-06-23T16:40:42.060Z,28.5
2017-06-23T16:42:00.751Z,28.2
2017-06-23T16:43:19.473Z,27.6
2017-06-23T16:44:38.163Z,27.6
2017-06-23T16:45:56.859Z,28.1
2017-06-23T16:47:15.585Z,30.1
2017-06-23T16:48:34.326Z,30.3
2017-06-23T16:49:53.018Z,30
2017-06-23T16:51:11.716Z,29.2
2017-06-23T16:52:30.463Z,28.2
2017-06-23T16:53:49.223Z,27.7
2017-06-23T16:55:07.948Z,27.4
2017-06-23T16:56:26.675Z,27.2
2017-06-23T16:57:45.373Z,26.7
2017-06-23T16:59:04.154Z,26.5
2017-06-23T17:00:22.877Z,26.4
2017-06-23T17:01:41.588Z,26
2017-06-23T17:03:00.333Z,25.8
2017-06-23T17:04:19.077Z,25.8
2017-06-23T17:05:37.818Z,25.5
2017-06-23T17:06:56.509Z,25.5
2017-06-23T17:08:15.245Z,25.8
2017-06-23T17:09:34.014Z,26.1
2017-06-23T17:10:52.753Z,26
2017-06-23T17:12:11.436Z,26.1
2017-06-23T17:13:30.124Z,26.6
2017-06-23T17:14:48.840Z,27.1
2017-06-23T17:16:07.587Z,28
2017-06-23T17:17:26.281Z,28.4
2017-06-23T17:18:45.019Z,28.1
2017-06-23T17:20:03.737Z,28
2017-06-23T17:21:22.437Z,27.9
2017-06-23T17:22:41.180Z,27.9
2017-06-23T17:23:59.904Z,28
2017-06-23T17:25:18.624Z,27.9
2017-06-23T17:26:37.368Z,27.4
2017-06-23T17:27:56.053Z,27
2017-06-23T17:29:14.792Z,26.5
2017-06-23T17:30:33.500Z,26
2017-06-23T17:31:52.194Z,25.6
2017-06-23T17:33:10.941Z,25.6
2017-06-23T17:34:29.665Z,25.4
2017-06-23T17:35:48.380Z,25.3
2017-06-23T17:37:07.093Z,25